Severance, Kansas
Current Conditions -  °F | °C
As of 3:53 PM on Friday 19 Dec 2014 (Local Time) from KSTJ Reporting Station
Overcast Overcast  
Wind Chill: 26°   Ceiling: 800
Heat Index: 32°   Visibility: 8mi
Dew Point: 30°   Wind: 7mph
Humidity: 92%   Direction: 220°SW
Pressure: 30.22"   Gusts: NA
Location:  39.7768°N, 95.0862°W
Report Text: KSTJ 192153Z 22006KT 8SM OVC008 00/M01 A3022 RMK AO2 SLP241 T00001011
Loading
Personal Weather Stations






























Interactive Weather Map New forecast layout! Learn more

10-Day Weather Forecast

Advertisements
Track Severe Weather on mobile